This is the latest recevied weather packets stored in our database for station/object KJ6HT. If no packets are shown the sender has not sent any weather packets the latest 10 day(s).
| Time | Temp. | Humidity | Pressure | Rain* | Wind** | Luminosity | Snow |
|---|---|---|---|---|---|---|---|
| 1777781747 | 17.22° C | 77% | 1010.6 hPa | 0 mm | - | - | - |
| 1777780808 | 17.78° C | 75% | 1010.5 hPa | 0 mm | - | - | - |
| 1777779963 | 18.33° C | 73% | 1010.1 hPa | 0 mm | - | - | - |
| 1777779029 | 18.89° C | 72% | 1009.8 hPa | 0 mm | - | - | - |
| 1777778156 | 19.44° C | 70% | 1009.6 hPa | 0 mm | - | - | - |
| 1777777292 | 20.56° C | 67% | 1009.4 hPa | 0 mm | - | - | - |
| 1777776352 | 21.11° C | 64% | 1009 hPa | 0 mm | - | - | - |
| 1777775404 | 21.67° C | 61% | 1008.7 hPa | 0 mm | - | - | - |
| 1777774560 | 22.22° C | 60% | 1008.5 hPa | 0 mm | - | - | - |
| 1777773608 | 22.78° C | 58% | 1008.6 hPa | 0 mm | - | - | - |
| 1777772765 | 23.33° C | 57% | 1008.5 hPa | 0 mm | - | - | - |
| 1777771832 | 23.89° C | 55% | 1008.5 hPa | 0 mm | - | - | - |
| 1777770993 | 23.89° C | 54% | 1008.5 hPa | 0 mm | - | - | - |
| 1777770067 | 24.44° C | 52% | 1008.5 hPa | 0 mm | - | - | - |
| 1777769114 | 25° C | 54% | 1008.4 hPa | 0 mm | - | - | - |
| 1777768282 | 25° C | 54% | 1008.5 hPa | 0 mm | - | - | - |
| 1777767342 | 25° C | 54% | 1008.4 hPa | 0 mm | - | - | - |
| 1777766481 | 25.56° C | 54% | 1008.3 hPa | 0 mm | - | - | - |
| 1777765544 | 25.56° C | 54% | 1008.3 hPa | 0 mm | - | - | - |
| 1777764602 | 25.56° C | 52% | 1008.3 hPa | 0 mm | - | - | - |
| 1777763766 | 26.11° C | 51% | 1008.4 hPa | 0 mm | - | - | - |
| 1777762826 | 26.11° C | 51% | 1008.6 hPa | 0 mm | - | - | - |
| 1777761980 | 26.67° C | 50% | 1008.8 hPa | 0 mm | - | - | - |
| 1777761042 | 26.11° C | 51% | 1009.1 hPa | 0 mm | - | - | - |
| 1777760104 | 26.67° C | 51% | 1009.4 hPa | 0 mm | - | - | - |
* Rain latest hour (hover to see other rain measurements)
** Current wind speed in m/s (hover to see current wind gust speed)